sensor_id;sensor_type;location;lat;lon;timestamp;temperature;humidity
16999;DHT22;10211;49.476;11.010;2022-11-14T00:00:22;2.20;99.90
16999;DHT22;10211;49.476;11.010;2022-11-14T00:02:50;2.20;99.90
16999;DHT22;10211;49.476;11.010;2022-11-14T00:05:18;2.20;99.90
16999;DHT22;10211;49.476;11.010;2022-11-14T00:07:45;2.10;99.90
16999;DHT22;10211;49.476;11.010;2022-11-14T00:10:25;2.10;99.90
16999;DHT22;10211;49.476;11.010;2022-11-14T00:12:53;2.10;99.90
16999;DHT22;10211;49.476;11.010;2022-11-14T00:15:21;2.10;99.90
16999;DHT22;10211;49.476;11.010;2022-11-14T00:17:48;2.10;99.90
16999;DHT22;10211;49.476;11.010;2022-11-14T00:20:17;2.10;99.90
16999;DHT22;10211;49.476;11.010;2022-11-14T00:22:43;2.00;99.90
16999;DHT22;10211;49.476;11.010;2022-11-14T00:25:12;2.00;99.90
16999;DHT22;10211;49.476;11.010;2022-11-14T00:27:39;2.00;99.90
16999;DHT22;10211;49.476;11.010;2022-11-14T00:30:08;1.90;99.90
16999;DHT22;10211;49.476;11.010;2022-11-14T00:32:35;1.90;99.90
16999;DHT22;10211;49.476;11.010;2022-11-14T00:35:02;1.90;99.90
16999;DHT22;10211;49.476;11.010;2022-11-14T00:37:29;1.90;99.90
16999;DHT22;10211;49.476;11.010;2022-11-14T00:39:56;1.90;99.90
16999;DHT22;10211;49.476;11.010;2022-11-14T00:42:22;1.90;99.90
16999;DHT22;10211;49.476;11.010;2022-11-14T00:44:52;1.90;99.90
16999;DHT22;10211;49.476;11.010;2022-11-14T00:47:20;1.90;99.90
16999;DHT22;10211;49.476;11.010;2022-11-14T00:49:48;1.90;99.90
16999;DHT22;10211;49.476;11.010;2022-11-14T00:52:16;1.90;99.90
16999;DHT22;10211;49.476;11.010;2022-11-14T00:54:43;1.90;99.90
16999;DHT22;10211;49.476;11.010;2022-11-14T00:57:12;1.90;99.90
16999;DHT22;10211;49.476;11.010;2022-11-14T00:59:39;1.90;99.90
16999;DHT22;10211;49.476;11.010;2022-11-14T01:02:06;1.90;99.90
16999;DHT22;10211;49.476;11.010;2022-11-14T01:04:34;1.80;99.90
16999;DHT22;10211;49.476;11.010;2022-11-14T01:07:01;1.80;99.90
16999;DHT22;10211;49.476;11.010;2022-11-14T01:09:28;1.80;99.90
16999;DHT22;10211;49.476;11.010;2022-11-14T01:11:55;1.80;99.90
16999;DHT22;10211;49.476;11.010;2022-11-14T01:14:23;1.80;99.90
16999;DHT22;10211;49.476;11.010;2022-11-14T01:16:49;1.80;99.90
16999;DHT22;10211;49.476;11.010;2022-11-14T01:19:16;1.80;99.90
16999;DHT22;10211;49.476;11.010;2022-11-14T01:21:44;1.80;99.90
16999;DHT22;10211;49.476;11.010;2022-11-14T01:24:11;1.80;99.90
16999;DHT22;10211;49.476;11.010;2022-11-14T01:26:38;1.80;99.90
16999;DHT22;10211;49.476;11.010;2022-11-14T01:29:05;1.80;99.90
16999;DHT22;10211;49.476;11.010;2022-11-14T01:31:31;1.80;99.90
16999;DHT22;10211;49.476;11.010;2022-11-14T01:33:58;1.90;99.90
16999;DHT22;10211;49.476;11.010;2022-11-14T01:36:27;1.90;99.90
16999;DHT22;10211;49.476;11.010;2022-11-14T01:38:55;1.90;99.90
16999;DHT22;10211;49.476;11.010;2022-11-14T01:41:22;1.90;99.90
16999;DHT22;10211;49.476;11.010;2022-11-14T01:43:50;1.90;99.90
16999;DHT22;10211;49.476;11.010;2022-11-14T01:46:21;1.90;99.90
16999;DHT22;10211;49.476;11.010;2022-11-14T01:48:51;1.90;99.90
16999;DHT22;10211;49.476;11.010;2022-11-14T01:51:22;1.90;99.90
16999;DHT22;10211;49.476;11.010;2022-11-14T01:53:53;1.80;99.90
16999;DHT22;10211;49.476;11.010;2022-11-14T01:56:25;1.80;99.90
16999;DHT22;10211;49.476;11.010;2022-11-14T01:58:57;1.70;99.90
16999;DHT22;10211;49.476;11.010;2022-11-14T02:01:28;1.70;99.90
16999;DHT22;10211;49.476;11.010;2022-11-14T02:03:57;1.70;99.90
16999;DHT22;10211;49.476;11.010;2022-11-14T02:06:28;1.70;99.90
16999;DHT22;10211;49.476;11.010;2022-11-14T02:09:01;1.70;99.90
16999;DHT22;10211;49.476;11.010;2022-11-14T02:11:32;1.60;99.90
16999;DHT22;10211;49.476;11.010;2022-11-14T02:14:00;1.60;99.90
16999;DHT22;10211;49.476;11.010;2022-11-14T02:16:27;1.60;99.90
16999;DHT22;10211;49.476;11.010;2022-11-14T02:19:04;1.60;99.90
16999;DHT22;10211;49.476;11.010;2022-11-14T02:21:36;1.50;99.90
16999;DHT22;10211;49.476;11.010;2022-11-14T02:24:06;1.50;99.90
16999;DHT22;10211;49.476;11.010;2022-11-14T02:26:36;1.50;99.90
16999;DHT22;10211;49.476;11.010;2022-11-14T02:29:03;1.50;99.90
16999;DHT22;10211;49.476;11.010;2022-11-14T02:31:32;1.50;99.90
16999;DHT22;10211;49.476;11.010;2022-11-14T02:33:59;1.50;99.90
16999;DHT22;10211;49.476;11.010;2022-11-14T02:36:26;1.50;99.90
16999;DHT22;10211;49.476;11.010;2022-11-14T02:38:55;1.50;99.90
16999;DHT22;10211;49.476;11.010;2022-11-14T02:41:21;1.50;99.90
16999;DHT22;10211;49.476;11.010;2022-11-14T02:43:48;1.50;99.90
16999;DHT22;10211;49.476;11.010;2022-11-14T02:46:15;1.40;99.90
16999;DHT22;10211;49.476;11.010;2022-11-14T02:48:42;1.40;99.90
16999;DHT22;10211;49.476;11.010;2022-11-14T02:51:09;1.40;99.90
16999;DHT22;10211;49.476;11.010;2022-11-14T02:53:37;1.40;99.90
16999;DHT22;10211;49.476;11.010;2022-11-14T02:56:06;1.40;99.90
16999;DHT22;10211;49.476;11.010;2022-11-14T02:58:33;1.40;99.90
16999;DHT22;10211;49.476;11.010;2022-11-14T03:00:59;1.40;99.90
16999;DHT22;10211;49.476;11.010;2022-11-14T03:03:26;1.40;99.90
16999;DHT22;10211;49.476;11.010;2022-11-14T03:05:58;1.40;99.90
16999;DHT22;10211;49.476;11.010;2022-11-14T03:08:26;1.40;99.90
16999;DHT22;10211;49.476;11.010;2022-11-14T03:10:54;1.30;99.90
16999;DHT22;10211;49.476;11.010;2022-11-14T03:13:22;1.30;99.90
16999;DHT22;10211;49.476;11.010;2022-11-14T03:15:49;1.30;99.90
16999;DHT22;10211;49.476;11.010;2022-11-14T03:18:20;1.20;99.90
16999;DHT22;10211;49.476;11.010;2022-11-14T03:20:47;1.20;99.90
16999;DHT22;10211;49.476;11.010;2022-11-14T03:23:14;1.20;99.90
16999;DHT22;10211;49.476;11.010;2022-11-14T03:25:41;1.10;99.90
16999;DHT22;10211;49.476;11.010;2022-11-14T03:28:07;1.10;99.90
16999;DHT22;10211;49.476;11.010;2022-11-14T03:30:36;1.10;99.90
16999;DHT22;10211;49.476;11.010;2022-11-14T03:33:03;1.10;99.90
16999;DHT22;10211;49.476;11.010;2022-11-14T03:35:30;1.00;99.90
16999;DHT22;10211;49.476;11.010;2022-11-14T03:37:58;1.00;99.90
16999;DHT22;10211;49.476;11.010;2022-11-14T03:40:25;1.00;99.90
16999;DHT22;10211;49.476;11.010;2022-11-14T03:42:52;0.90;99.90
16999;DHT22;10211;49.476;11.010;2022-11-14T03:45:19;0.90;99.90
16999;DHT22;10211;49.476;11.010;2022-11-14T03:48:09;0.90;99.90
16999;DHT22;10211;49.476;11.010;2022-11-14T03:50:36;0.90;99.90
16999;DHT22;10211;49.476;11.010;2022-11-14T03:53:03;0.90;99.90
16999;DHT22;10211;49.476;11.010;2022-11-14T03:55:30;1.00;99.90
16999;DHT22;10211;49.476;11.010;2022-11-14T03:57:56;1.10;99.90
16999;DHT22;10211;49.476;11.010;2022-11-14T04:00:23;1.20;99.90
16999;DHT22;10211;49.476;11.010;2022-11-14T04:06:14;1.40;99.90
16999;DHT22;10211;49.476;11.010;2022-11-14T04:08:41;1.40;99.90
16999;DHT22;10211;49.476;11.010;2022-11-14T04:11:08;1.40;99.90
16999;DHT22;10211;49.476;11.010;2022-11-14T04:13:36;1.60;99.90
16999;DHT22;10211;49.476;11.010;2022-11-14T04:16:05;1.70;99.90
16999;DHT22;10211;49.476;11.010;2022-11-14T04:18:33;1.70;99.90
16999;DHT22;10211;49.476;11.010;2022-11-14T04:21:00;1.70;99.90
16999;DHT22;10211;49.476;11.010;2022-11-14T04:23:28;1.70;99.90
16999;DHT22;10211;49.476;11.010;2022-11-14T04:25:55;1.70;99.90
16999;DHT22;10211;49.476;11.010;2022-11-14T04:28:22;1.60;99.90
16999;DHT22;10211;49.476;11.010;2022-11-14T04:30:50;1.60;99.90
16999;DHT22;10211;49.476;11.010;2022-11-14T04:36:39;1.50;99.90
16999;DHT22;10211;49.476;11.010;2022-11-14T04:39:10;1.60;99.90
16999;DHT22;10211;49.476;11.010;2022-11-14T04:41:38;1.60;99.90
16999;DHT22;10211;49.476;11.010;2022-11-14T04:44:06;1.70;99.90
16999;DHT22;10211;49.476;11.010;2022-11-14T04:46:33;1.70;99.90
16999;DHT22;10211;49.476;11.010;2022-11-14T04:49:00;1.70;99.90
16999;DHT22;10211;49.476;11.010;2022-11-14T04:51:27;1.60;99.90
16999;DHT22;10211;49.476;11.010;2022-11-14T04:53:55;1.60;99.90
16999;DHT22;10211;49.476;11.010;2022-11-14T04:56:24;1.60;99.90
16999;DHT22;10211;49.476;11.010;2022-11-14T04:58:51;1.60;99.90
16999;DHT22;10211;49.476;11.010;2022-11-14T05:01:20;1.60;99.90
16999;DHT22;10211;49.476;11.010;2022-11-14T05:03:47;1.50;99.90
16999;DHT22;10211;49.476;11.010;2022-11-14T05:06:15;1.50;99.90
16999;DHT22;10211;49.476;11.010;2022-11-14T05:08:42;1.50;99.90
16999;DHT22;10211;49.476;11.010;2022-11-14T05:11:14;1.60;99.90
16999;DHT22;10211;49.476;11.010;2022-11-14T05:13:42;1.60;99.90
16999;DHT22;10211;49.476;11.010;2022-11-14T05:16:11;1.50;99.90
16999;DHT22;10211;49.476;11.010;2022-11-14T05:18:38;1.50;99.90
16999;DHT22;10211;49.476;11.010;2022-11-14T05:21:05;1.50;99.90
16999;DHT22;10211;49.476;11.010;2022-11-14T05:23:32;1.40;99.90
16999;DHT22;10211;49.476;11.010;2022-11-14T05:26:01;1.40;99.90
16999;DHT22;10211;49.476;11.010;2022-11-14T05:28:28;1.40;99.90
16999;DHT22;10211;49.476;11.010;2022-11-14T05:31:05;1.40;99.90
16999;DHT22;10211;49.476;11.010;2022-11-14T05:33:33;1.40;99.90
16999;DHT22;10211;49.476;11.010;2022-11-14T05:36:10;1.40;99.90
16999;DHT22;10211;49.476;11.010;2022-11-14T05:38:37;1.40;99.90
16999;DHT22;10211;49.476;11.010;2022-11-14T05:41:08;1.40;99.90
16999;DHT22;10211;49.476;11.010;2022-11-14T05:43:35;1.40;99.90
16999;DHT22;10211;49.476;11.010;2022-11-14T05:46:05;1.40;99.90
16999;DHT22;10211;49.476;11.010;2022-11-14T05:48:33;1.30;99.90
16999;DHT22;10211;49.476;11.010;2022-11-14T05:51:03;1.30;99.90
16999;DHT22;10211;49.476;11.010;2022-11-14T05:53:31;1.30;99.90
16999;DHT22;10211;49.476;11.010;2022-11-14T05:55:59;1.30;99.90
16999;DHT22;10211;49.476;11.010;2022-11-14T05:58:27;1.30;99.90
16999;DHT22;10211;49.476;11.010;2022-11-14T06:01:00;1.30;99.90
16999;DHT22;10211;49.476;11.010;2022-11-14T06:03:31;1.30;99.90
16999;DHT22;10211;49.476;11.010;2022-11-14T06:05:59;1.30;99.90
16999;DHT22;10211;49.476;11.010;2022-11-14T06:08:27;1.30;99.90
16999;DHT22;10211;49.476;11.010;2022-11-14T06:10:56;1.40;99.90
16999;DHT22;10211;49.476;11.010;2022-11-14T06:13:26;1.40;99.90
16999;DHT22;10211;49.476;11.010;2022-11-14T06:15:57;1.50;99.90
16999;DHT22;10211;49.476;11.010;2022-11-14T06:18:24;1.50;99.90
16999;DHT22;10211;49.476;11.010;2022-11-14T06:20:52;1.50;99.90
16999;DHT22;10211;49.476;11.010;2022-11-14T06:23:21;1.50;99.90
16999;DHT22;10211;49.476;11.010;2022-11-14T06:25:48;1.60;99.90
16999;DHT22;10211;49.476;11.010;2022-11-14T06:28:14;1.60;99.90
16999;DHT22;10211;49.476;11.010;2022-11-14T06:30:42;1.60;99.90
16999;DHT22;10211;49.476;11.010;2022-11-14T06:33:09;1.70;99.90
16999;DHT22;10211;49.476;11.010;2022-11-14T06:35:38;1.70;99.90
16999;DHT22;10211;49.476;11.010;2022-11-14T06:38:08;1.80;99.90
16999;DHT22;10211;49.476;11.010;2022-11-14T06:40:35;1.90;99.90
16999;DHT22;10211;49.476;11.010;2022-11-14T06:43:02;2.00;99.90
16999;DHT22;10211;49.476;11.010;2022-11-14T06:45:29;2.00;99.90
16999;DHT22;10211;49.476;11.010;2022-11-14T06:47:57;2.10;99.90
16999;DHT22;10211;49.476;11.010;2022-11-14T06:50:25;2.10;99.90
16999;DHT22;10211;49.476;11.010;2022-11-14T06:52:52;2.20;99.90
16999;DHT22;10211;49.476;11.010;2022-11-14T06:55:20;2.20;99.90
16999;DHT22;10211;49.476;11.010;2022-11-14T06:57:51;2.30;99.90
16999;DHT22;10211;49.476;11.010;2022-11-14T07:00:19;2.30;99.90
16999;DHT22;10211;49.476;11.010;2022-11-14T07:02:46;2.40;99.90
16999;DHT22;10211;49.476;11.010;2022-11-14T07:05:13;2.40;99.90
16999;DHT22;10211;49.476;11.010;2022-11-14T07:07:40;2.50;99.90
16999;DHT22;10211;49.476;11.010;2022-11-14T07:10:08;2.50;99.90
16999;DHT22;10211;49.476;11.010;2022-11-14T07:12:36;2.50;99.90
16999;DHT22;10211;49.476;11.010;2022-11-14T07:15:03;2.50;99.90
16999;DHT22;10211;49.476;11.010;2022-11-14T07:17:33;2.50;99.90
16999;DHT22;10211;49.476;11.010;2022-11-14T07:20:01;2.50;99.90
16999;DHT22;10211;49.476;11.010;2022-11-14T07:22:28;2.50;99.90
16999;DHT22;10211;49.476;11.010;2022-11-14T07:24:54;2.50;99.90
16999;DHT22;10211;49.476;11.010;2022-11-14T07:27:22;2.60;99.90
16999;DHT22;10211;49.476;11.010;2022-11-14T07:29:50;2.60;99.90
16999;DHT22;10211;49.476;11.010;2022-11-14T07:32:17;2.70;99.90
16999;DHT22;10211;49.476;11.010;2022-11-14T07:34:44;2.80;99.90
16999;DHT22;10211;49.476;11.010;2022-11-14T07:37:11;2.80;99.90
16999;DHT22;10211;49.476;11.010;2022-11-14T07:39:37;2.90;99.90
16999;DHT22;10211;49.476;11.010;2022-11-14T07:42:05;3.00;99.90
16999;DHT22;10211;49.476;11.010;2022-11-14T07:44:33;3.10;99.90
16999;DHT22;10211;49.476;11.010;2022-11-14T07:47:02;3.10;99.90
16999;DHT22;10211;49.476;11.010;2022-11-14T07:49:29;3.20;99.90
16999;DHT22;10211;49.476;11.010;2022-11-14T07:51:56;3.30;99.90
16999;DHT22;10211;49.476;11.010;2022-11-14T07:54:23;3.30;99.90
16999;DHT22;10211;49.476;11.010;2022-11-14T07:57:16;3.40;99.90
16999;DHT22;10211;49.476;11.010;2022-11-14T07:59:43;3.50;99.90
16999;DHT22;10211;49.476;11.010;2022-11-14T08:02:13;3.50;99.90
16999;DHT22;10211;49.476;11.010;2022-11-14T08:04:40;3.60;99.90
16999;DHT22;10211;49.476;11.010;2022-11-14T08:07:20;3.70;99.90
16999;DHT22;10211;49.476;11.010;2022-11-14T08:09:46;3.80;99.90
16999;DHT22;10211;49.476;11.010;2022-11-14T08:12:13;3.90;99.90
16999;DHT22;10211;49.476;11.010;2022-11-14T08:14:40;4.00;99.90
16999;DHT22;10211;49.476;11.010;2022-11-14T08:17:07;4.00;99.90
16999;DHT22;10211;49.476;11.010;2022-11-14T08:19:35;4.10;99.90
16999;DHT22;10211;49.476;11.010;2022-11-14T08:22:02;4.20;99.90
16999;DHT22;10211;49.476;11.010;2022-11-14T08:24:29;4.30;99.90
16999;DHT22;10211;49.476;11.010;2022-11-14T08:26:56;4.50;99.90
16999;DHT22;10211;49.476;11.010;2022-11-14T08:29:23;4.50;99.90
16999;DHT22;10211;49.476;11.010;2022-11-14T08:31:50;4.60;99.90
16999;DHT22;10211;49.476;11.010;2022-11-14T08:34:17;4.60;99.90
16999;DHT22;10211;49.476;11.010;2022-11-14T08:36:48;4.70;99.90
16999;DHT22;10211;49.476;11.010;2022-11-14T08:39:15;4.80;99.90
16999;DHT22;10211;49.476;11.010;2022-11-14T08:41:43;4.90;99.90
16999;DHT22;10211;49.476;11.010;2022-11-14T08:44:11;5.00;99.90
16999;DHT22;10211;49.476;11.010;2022-11-14T08:46:39;5.10;99.90
16999;DHT22;10211;49.476;11.010;2022-11-14T08:49:06;5.10;99.90
16999;DHT22;10211;49.476;11.010;2022-11-14T08:51:33;5.20;99.90
16999;DHT22;10211;49.476;11.010;2022-11-14T08:54:09;5.20;99.90
16999;DHT22;10211;49.476;11.010;2022-11-14T08:56:36;5.40;99.90
16999;DHT22;10211;49.476;11.010;2022-11-14T08:59:03;5.40;99.90
16999;DHT22;10211;49.476;11.010;2022-11-14T09:01:30;5.40;99.90
16999;DHT22;10211;49.476;11.010;2022-11-14T09:03:57;5.50;99.90
16999;DHT22;10211;49.476;11.010;2022-11-14T09:06:25;5.70;99.90
16999;DHT22;10211;49.476;11.010;2022-11-14T09:08:52;5.70;99.90
16999;DHT22;10211;49.476;11.010;2022-11-14T09:11:23;5.80;99.90
16999;DHT22;10211;49.476;11.010;2022-11-14T09:13:50;5.90;99.90
16999;DHT22;10211;49.476;11.010;2022-11-14T09:16:17;5.90;99.90
16999;DHT22;10211;49.476;11.010;2022-11-14T09:18:44;6.00;99.90
16999;DHT22;10211;49.476;11.010;2022-11-14T09:21:10;6.10;99.90
16999;DHT22;10211;49.476;11.010;2022-11-14T09:23:38;6.20;99.90
16999;DHT22;10211;49.476;11.010;2022-11-14T09:26:08;6.30;99.90
16999;DHT22;10211;49.476;11.010;2022-11-14T09:28:38;6.40;99.90
16999;DHT22;10211;49.476;11.010;2022-11-14T09:31:07;6.50;99.90
16999;DHT22;10211;49.476;11.010;2022-11-14T09:33:35;6.60;99.90
16999;DHT22;10211;49.476;11.010;2022-11-14T09:36:06;6.70;99.90
16999;DHT22;10211;49.476;11.010;2022-11-14T09:38:33;6.80;99.90
16999;DHT22;10211;49.476;11.010;2022-11-14T09:41:11;6.80;99.90
16999;DHT22;10211;49.476;11.010;2022-11-14T09:44:11;6.90;99.90
16999;DHT22;10211;49.476;11.010;2022-11-14T09:46:55;7.00;99.90
16999;DHT22;10211;49.476;11.010;2022-11-14T09:49:28;7.20;99.90
16999;DHT22;10211;49.476;11.010;2022-11-14T09:52:02;7.30;99.90
16999;DHT22;10211;49.476;11.010;2022-11-14T09:54:39;7.40;99.90
16999;DHT22;10211;49.476;11.010;2022-11-14T09:57:14;7.50;99.90
16999;DHT22;10211;49.476;11.010;2022-11-14T09:59:43;7.60;99.90
16999;DHT22;10211;49.476;11.010;2022-11-14T10:02:27;7.70;99.90
16999;DHT22;10211;49.476;11.010;2022-11-14T10:05:08;7.80;99.90
16999;DHT22;10211;49.476;11.010;2022-11-14T10:07:44;7.80;99.90
16999;DHT22;10211;49.476;11.010;2022-11-14T10:10:32;8.00;99.90
16999;DHT22;10211;49.476;11.010;2022-11-14T10:13:09;8.00;99.90
16999;DHT22;10211;49.476;11.010;2022-11-14T10:15:45;8.10;99.90
16999;DHT22;10211;49.476;11.010;2022-11-14T10:18:39;8.20;99.90
16999;DHT22;10211;49.476;11.010;2022-11-14T10:21:32;8.30;99.90
16999;DHT22;10211;49.476;11.010;2022-11-14T10:24:18;8.50;99.90
16999;DHT22;10211;49.476;11.010;2022-11-14T10:27:02;8.60;99.90
16999;DHT22;10211;49.476;11.010;2022-11-14T10:29:42;8.70;99.90
16999;DHT22;10211;49.476;11.010;2022-11-14T10:32:26;8.90;99.90
16999;DHT22;10211;49.476;11.010;2022-11-14T10:35:01;9.10;99.90
16999;DHT22;10211;49.476;11.010;2022-11-14T10:37:33;9.30;99.90
16999;DHT22;10211;49.476;11.010;2022-11-14T10:40:14;9.40;99.90
16999;DHT22;10211;49.476;11.010;2022-11-14T10:42:45;9.70;99.90
16999;DHT22;10211;49.476;11.010;2022-11-14T10:45:17;10.10;99.90
16999;DHT22;10211;49.476;11.010;2022-11-14T10:47:55;12.10;99.90
16999;DHT22;10211;49.476;11.010;2022-11-14T10:50:26;15.50;99.90
16999;DHT22;10211;49.476;11.010;2022-11-14T10:52:59;18.70;96.60
16999;DHT22;10211;49.476;11.010;2022-11-14T10:55:34;21.70;88.40
16999;DHT22;10211;49.476;11.010;2022-11-14T10:58:06;24.60;76.40
16999;DHT22;10211;49.476;11.010;2022-11-14T11:00:34;26.40;67.70
16999;DHT22;10211;49.476;11.010;2022-11-14T11:03:06;28.00;63.90
16999;DHT22;10211;49.476;11.010;2022-11-14T11:05:44;29.10;58.70
16999;DHT22;10211;49.476;11.010;2022-11-14T11:08:11;30.00;55.70
16999;DHT22;10211;49.476;11.010;2022-11-14T11:10:58;30.40;53.30
16999;DHT22;10211;49.476;11.010;2022-11-14T11:13:52;30.30;50.00
16999;DHT22;10211;49.476;11.010;2022-11-14T11:16:21;28.90;52.90
16999;DHT22;10211;49.476;11.010;2022-11-14T11:21:53;26.90;53.20
16999;DHT22;10211;49.476;11.010;2022-11-14T11:24:38;22.60;59.00
16999;DHT22;10211;49.476;11.010;2022-11-14T11:27:19;20.70;62.90
16999;DHT22;10211;49.476;11.010;2022-11-14T11:30:08;19.40;66.50
16999;DHT22;10211;49.476;11.010;2022-11-14T11:32:42;18.40;69.10
16999;DHT22;10211;49.476;11.010;2022-11-14T11:35:11;17.70;71.30
16999;DHT22;10211;49.476;11.010;2022-11-14T11:37:43;17.20;73.00
16999;DHT22;10211;49.476;11.010;2022-11-14T11:40:15;16.70;74.70
16999;DHT22;10211;49.476;11.010;2022-11-14T11:42:47;16.20;76.00
16999;DHT22;10211;49.476;11.010;2022-11-14T11:45:17;15.50;77.40
16999;DHT22;10211;49.476;11.010;2022-11-14T11:47:49;15.20;79.30
16999;DHT22;10211;49.476;11.010;2022-11-14T11:50:19;14.90;80.70
16999;DHT22;10211;49.476;11.010;2022-11-14T11:52:53;14.60;82.00
16999;DHT22;10211;49.476;11.010;2022-11-14T11:55:24;14.20;83.60
16999;DHT22;10211;49.476;11.010;2022-11-14T11:58:01;13.90;85.20
16999;DHT22;10211;49.476;11.010;2022-11-14T12:00:29;13.70;86.80
16999;DHT22;10211;49.476;11.010;2022-11-14T12:03:00;13.40;88.70
16999;DHT22;10211;49.476;11.010;2022-11-14T12:05:41;13.30;90.00
16999;DHT22;10211;49.476;11.010;2022-11-14T12:08:17;13.30;90.40
16999;DHT22;10211;49.476;11.010;2022-11-14T12:10:46;13.20;90.90
16999;DHT22;10211;49.476;11.010;2022-11-14T12:16:45;12.90;92.00
16999;DHT22;10211;49.476;11.010;2022-11-14T12:19:37;12.80;92.80
16999;DHT22;10211;49.476;11.010;2022-11-14T12:22:25;12.70;93.60
16999;DHT22;10211;49.476;11.010;2022-11-14T12:28:08;12.70;94.40
16999;DHT22;10211;49.476;11.010;2022-11-14T12:30:45;12.70;95.00
16999;DHT22;10211;49.476;11.010;2022-11-14T12:33:27;12.80;95.70
16999;DHT22;10211;49.476;11.010;2022-11-14T12:35:57;13.00;96.00
16999;DHT22;10211;49.476;11.010;2022-11-14T12:38:31;13.00;96.60
16999;DHT22;10211;49.476;11.010;2022-11-14T12:41:01;13.10;96.60
16999;DHT22;10211;49.476;11.010;2022-11-14T12:43:33;13.20;96.60
16999;DHT22;10211;49.476;11.010;2022-11-14T12:46:02;13.10;97.00
16999;DHT22;10211;49.476;11.010;2022-11-14T12:48:35;13.00;97.40
16999;DHT22;10211;49.476;11.010;2022-11-14T12:51:03;12.90;97.70
16999;DHT22;10211;49.476;11.010;2022-11-14T12:53:45;12.80;98.40
16999;DHT22;10211;49.476;11.010;2022-11-14T12:56:46;12.80;98.90
16999;DHT22;10211;49.476;11.010;2022-11-14T12:59:24;12.80;99.50
16999;DHT22;10211;49.476;11.010;2022-11-14T13:02:21;12.70;99.90
16999;DHT22;10211;49.476;11.010;2022-11-14T13:05:01;12.70;99.90
16999;DHT22;10211;49.476;11.010;2022-11-14T13:07:44;12.70;99.90
16999;DHT22;10211;49.476;11.010;2022-11-14T13:10:22;12.60;99.90
16999;DHT22;10211;49.476;11.010;2022-11-14T13:13:03;12.70;99.90
16999;DHT22;10211;49.476;11.010;2022-11-14T13:15:54;12.70;99.90
16999;DHT22;10211;49.476;11.010;2022-11-14T13:18:58;12.70;99.90
16999;DHT22;10211;49.476;11.010;2022-11-14T13:25:18;12.80;99.90
16999;DHT22;10211;49.476;11.010;2022-11-14T13:27:45;12.70;99.90
16999;DHT22;10211;49.476;11.010;2022-11-14T13:30:12;12.80;99.90
16999;DHT22;10211;49.476;11.010;2022-11-14T13:32:53;12.80;99.90
16999;DHT22;10211;49.476;11.010;2022-11-14T13:35:29;12.90;99.90
16999;DHT22;10211;49.476;11.010;2022-11-14T13:38:20;12.90;99.90
16999;DHT22;10211;49.476;11.010;2022-11-14T13:41:00;13.10;99.90
16999;DHT22;10211;49.476;11.010;2022-11-14T13:43:42;13.30;99.90
16999;DHT22;10211;49.476;11.010;2022-11-14T13:46:21;13.70;99.90
16999;DHT22;10211;49.476;11.010;2022-11-14T13:49:06;14.50;99.90
16999;DHT22;10211;49.476;11.010;2022-11-14T13:51:36;15.30;98.60
16999;DHT22;10211;49.476;11.010;2022-11-14T13:54:09;15.80;96.90
16999;DHT22;10211;49.476;11.010;2022-11-14T13:56:54;16.00;96.20
16999;DHT22;10211;49.476;11.010;2022-11-14T13:59:43;16.00;95.30
16999;DHT22;10211;49.476;11.010;2022-11-14T14:02:35;15.80;95.10
16999;DHT22;10211;49.476;11.010;2022-11-14T14:05:15;15.50;95.20
16999;DHT22;10211;49.476;11.010;2022-11-14T14:08:08;15.20;95.20
16999;DHT22;10211;49.476;11.010;2022-11-14T14:10:41;14.70;95.80
16999;DHT22;10211;49.476;11.010;2022-11-14T14:13:28;14.30;96.40
16999;DHT22;10211;49.476;11.010;2022-11-14T14:16:04;13.90;97.00
16999;DHT22;10211;49.476;11.010;2022-11-14T14:18:43;13.60;97.70
16999;DHT22;10211;49.476;11.010;2022-11-14T14:21:20;13.40;98.40
16999;DHT22;10211;49.476;11.010;2022-11-14T14:23:54;13.40;98.90
16999;DHT22;10211;49.476;11.010;2022-11-14T14:26:25;13.20;99.10
16999;DHT22;10211;49.476;11.010;2022-11-14T14:29:00;13.10;99.40
16999;DHT22;10211;49.476;11.010;2022-11-14T14:31:34;12.90;99.90
16999;DHT22;10211;49.476;11.010;2022-11-14T14:34:02;12.70;99.90
16999;DHT22;10211;49.476;11.010;2022-11-14T14:36:30;12.60;99.90
16999;DHT22;10211;49.476;11.010;2022-11-14T14:39:15;12.40;99.90
16999;DHT22;10211;49.476;11.010;2022-11-14T14:41:42;12.30;99.90
16999;DHT22;10211;49.476;11.010;2022-11-14T14:44:18;12.10;99.90
16999;DHT22;10211;49.476;11.010;2022-11-14T14:46:47;12.00;99.90
16999;DHT22;10211;49.476;11.010;2022-11-14T14:49:19;11.90;99.90
16999;DHT22;10211;49.476;11.010;2022-11-14T14:51:48;11.80;99.90
16999;DHT22;10211;49.476;11.010;2022-11-14T14:54:19;11.70;99.90
16999;DHT22;10211;49.476;11.010;2022-11-14T14:57:00;11.60;99.90
16999;DHT22;10211;49.476;11.010;2022-11-14T14:59:29;11.60;99.90
16999;DHT22;10211;49.476;11.010;2022-11-14T15:01:57;11.60;99.90
16999;DHT22;10211;49.476;11.010;2022-11-14T15:04:26;11.60;99.90
16999;DHT22;10211;49.476;11.010;2022-11-14T15:07:00;11.80;99.90
16999;DHT22;10211;49.476;11.010;2022-11-14T15:09:28;11.70;99.90
16999;DHT22;10211;49.476;11.010;2022-11-14T15:11:56;11.70;99.90
16999;DHT22;10211;49.476;11.010;2022-11-14T15:14:28;11.80;99.90
16999;DHT22;10211;49.476;11.010;2022-11-14T15:16:57;11.80;99.90
16999;DHT22;10211;49.476;11.010;2022-11-14T15:19:29;11.80;99.90
16999;DHT22;10211;49.476;11.010;2022-11-14T15:22:03;11.80;99.90
16999;DHT22;10211;49.476;11.010;2022-11-14T15:24:31;11.80;99.90
16999;DHT22;10211;49.476;11.010;2022-11-14T15:27:02;11.70;99.90
16999;DHT22;10211;49.476;11.010;2022-11-14T15:29:29;11.70;99.90
16999;DHT22;10211;49.476;11.010;2022-11-14T15:31:59;11.60;99.90
16999;DHT22;10211;49.476;11.010;2022-11-14T15:34:28;11.50;99.90
16999;DHT22;10211;49.476;11.010;2022-11-14T15:37:21;11.50;99.90
16999;DHT22;10211;49.476;11.010;2022-11-14T15:39:48;11.50;99.90
16999;DHT22;10211;49.476;11.010;2022-11-14T15:42:18;11.40;99.90
16999;DHT22;10211;49.476;11.010;2022-11-14T15:44:46;11.30;99.90
16999;DHT22;10211;49.476;11.010;2022-11-14T15:47:19;11.30;99.90
16999;DHT22;10211;49.476;11.010;2022-11-14T15:49:58;11.20;99.90
16999;DHT22;10211;49.476;11.010;2022-11-14T15:52:31;11.10;99.90
16999;DHT22;10211;49.476;11.010;2022-11-14T15:54:58;11.00;99.90
16999;DHT22;10211;49.476;11.010;2022-11-14T15:57:36;10.90;99.90
16999;DHT22;10211;49.476;11.010;2022-11-14T16:00:03;10.90;99.90
16999;DHT22;10211;49.476;11.010;2022-11-14T16:02:32;10.80;99.90
16999;DHT22;10211;49.476;11.010;2022-11-14T16:05:02;10.70;99.90
16999;DHT22;10211;49.476;11.010;2022-11-14T16:07:31;10.70;99.90
16999;DHT22;10211;49.476;11.010;2022-11-14T16:09:58;10.60;99.90